createdAt,value
2022-12-07T00:00:10.283Z,3.3
2022-12-07T00:02:10.248Z,3.5
2022-12-07T00:04:10.047Z,2.7
2022-12-07T00:06:09.932Z,2.3
2022-12-07T00:10:13.146Z,2.6
2022-12-07T00:12:13.055Z,2
2022-12-07T00:14:12.932Z,2
2022-12-07T00:16:12.895Z,2.1
2022-12-07T00:18:12.669Z,3.1
2022-12-07T00:20:12.650Z,1.8
2022-12-07T00:34:15.208Z,1.9
2022-12-07T00:36:21.846Z,2
2022-12-07T00:42:34.240Z,2
2022-12-07T00:44:34.100Z,2
2022-12-07T00:46:34.040Z,1.7
2022-12-07T00:48:37.341Z,1.9
2022-12-07T01:02:39.955Z,2.7
2022-12-07T01:04:39.807Z,3.2
2022-12-07T01:06:39.667Z,2.4
2022-12-07T01:08:39.561Z,2.8
2022-12-07T01:10:39.444Z,2.7
2022-12-07T01:12:39.328Z,2.5
2022-12-07T01:14:39.227Z,2.2
2022-12-07T01:16:42.626Z,2.7
2022-12-07T01:18:42.405Z,2.2
2022-12-07T01:20:42.280Z,2.4
2022-12-07T01:22:42.159Z,1.6
2022-12-07T01:24:42.094Z,2
2022-12-07T01:26:41.922Z,1.2
2022-12-07T01:28:41.780Z,1.6
2022-12-07T01:30:45.259Z,2.4
2022-12-07T01:32:45.025Z,1.8
2022-12-07T01:34:44.906Z,1.5
2022-12-07T01:35:46.597Z,2.3
2022-12-07T01:37:46.467Z,1.9
2022-12-07T01:41:46.250Z,2.2
2022-12-07T01:43:49.612Z,3.1
2022-12-07T01:45:49.580Z,1.3
2022-12-07T01:47:49.379Z,1.9
2022-12-07T01:49:49.247Z,1.8
2022-12-07T01:51:49.137Z,1.1
2022-12-07T01:53:49.011Z,1.7
2022-12-07T01:55:48.869Z,2
2022-12-07T01:57:52.285Z,2
2022-12-07T01:59:52.127Z,1.8
2022-12-07T02:01:52.123Z,2.2
2022-12-07T02:03:51.884Z,2.7
2022-12-07T02:05:51.755Z,1.3
2022-12-07T02:07:51.718Z,1.7
2022-12-07T02:09:51.536Z,1.4
2022-12-07T02:11:54.916Z,1.9
2022-12-07T02:13:54.793Z,1.1
2022-12-07T02:15:54.762Z,1.4
2022-12-07T02:17:54.527Z,1.2
2022-12-07T02:19:54.426Z,1.3
2022-12-07T02:21:54.309Z,1.8
2022-12-07T02:23:54.186Z,2
2022-12-07T02:25:57.576Z,1.8
2022-12-07T02:27:57.425Z,1.9
2022-12-07T02:29:57.341Z,2.3
2022-12-07T02:30:59.127Z,1.7
2022-12-07T02:32:58.892Z,1.9
2022-12-07T02:34:58.713Z,1.4
2022-12-07T02:41:01.817Z,2
2022-12-07T02:43:01.695Z,1.6
2022-12-07T02:45:01.598Z,1.5
2022-12-07T02:47:01.408Z,1.9
2022-12-07T02:49:01.319Z,2
2022-12-07T02:51:01.193Z,1.6
2022-12-07T02:55:04.420Z,2.1
2022-12-07T03:03:05.542Z,2.4
2022-12-07T03:05:05.329Z,1.6
2022-12-07T03:15:08.207Z,1.6
2022-12-07T03:21:11.325Z,2.1
2022-12-07T03:23:11.241Z,2.3
2022-12-07T03:25:11.104Z,1.7
2022-12-07T03:26:12.792Z,2.1
2022-12-07T03:28:12.655Z,1.9
2022-12-07T03:30:12.515Z,2.1
2022-12-07T03:32:12.404Z,1.8
2022-12-07T03:34:15.783Z,1.7
2022-12-07T03:36:15.651Z,1.2
2022-12-07T03:38:15.523Z,1.3
2022-12-07T03:40:15.415Z,1.4
2022-12-07T03:42:15.297Z,2.1
2022-12-07T03:44:15.172Z,1.8
2022-12-07T03:46:15.142Z,1.7
2022-12-07T03:48:18.418Z,1.8
2022-12-07T03:50:18.313Z,1.2
2022-12-07T03:52:18.173Z,1.5
2022-12-07T03:54:18.041Z,1.8
2022-12-07T03:56:17.909Z,1.2
2022-12-07T03:58:17.810Z,1.8
2022-12-07T04:00:17.716Z,1.7
2022-12-07T04:02:21.064Z,1.5
2022-12-07T04:04:20.940Z,1.1
2022-12-07T04:06:20.783Z,1.6
2022-12-07T04:08:20.774Z,1.9
2022-12-07T04:10:20.567Z,1.2
2022-12-07T04:12:20.431Z,1
2022-12-07T04:14:20.302Z,1.6
2022-12-07T04:16:23.817Z,2.5
2022-12-07T04:18:23.549Z,1.3
2022-12-07T04:20:23.428Z,0.7
2022-12-07T04:22:45.732Z,1.5
2022-12-07T04:24:45.599Z,1.2
2022-12-07T04:26:45.477Z,1.5
2022-12-07T04:28:48.846Z,1.7
2022-12-07T04:30:48.734Z,1.1
2022-12-07T04:36:48.384Z,2.2
2022-12-07T04:38:48.243Z,1.6
2022-12-07T04:40:48.147Z,2.3
2022-12-07T04:42:51.532Z,2.2
2022-12-07T04:44:51.410Z,3.7
2022-12-07T04:46:51.296Z,2.6
2022-12-07T04:48:51.119Z,1.6
2022-12-07T04:50:51.032Z,1.8
2022-12-07T04:52:50.927Z,1.8
2022-12-07T04:54:50.757Z,2.2
2022-12-07T04:56:54.142Z,2.8
2022-12-07T04:58:54.055Z,2.2
2022-12-07T05:00:53.995Z,1.6
2022-12-07T05:02:53.761Z,2.3
2022-12-07T05:04:53.682Z,2.5
2022-12-07T05:06:53.538Z,1.8
2022-12-07T05:08:53.420Z,2.4
2022-12-07T05:10:56.818Z,3.2
2022-12-07T05:12:56.635Z,2.4
2022-12-07T05:14:56.554Z,2.1
2022-12-07T05:15:58.301Z,2.8
2022-12-07T05:24:01.238Z,2.7
2022-12-07T05:26:01.156Z,3.1
2022-12-07T05:28:01.020Z,1.8
2022-12-07T05:30:01.181Z,2.5
2022-12-07T05:32:00.867Z,2
2022-12-07T05:34:00.679Z,2.3
2022-12-07T05:36:00.570Z,2.5
2022-12-07T05:42:03.725Z,2.7
2022-12-07T05:44:03.608Z,2.3
2022-12-07T05:46:03.570Z,2.1
2022-12-07T05:48:03.408Z,2.9
2022-12-07T05:50:03.600Z,1.8
2022-12-07T05:52:06.705Z,2.2
2022-12-07T05:54:06.511Z,1.9
2022-12-07T05:56:06.376Z,2.7
2022-12-07T05:58:06.291Z,1.8
2022-12-07T06:00:06.336Z,2.1
2022-12-07T06:02:06.154Z,1.5
2022-12-07T06:04:05.944Z,1.5
2022-12-07T06:06:09.370Z,2
2022-12-07T06:08:09.262Z,1.9
2022-12-07T06:10:09.071Z,1.8
2022-12-07T06:13:10.641Z,1.9
2022-12-07T06:15:10.512Z,1.6
2022-12-07T06:17:10.407Z,1.3
2022-12-07T06:19:13.788Z,2.5
2022-12-07T06:21:13.687Z,1.6
2022-12-07T06:23:13.574Z,2.9
2022-12-07T06:25:13.455Z,2.6
2022-12-07T06:27:13.335Z,1.6
2022-12-07T06:29:13.232Z,1.8
2022-12-07T06:31:14.255Z,1.8
2022-12-07T06:33:16.500Z,2.3
2022-12-07T06:35:16.379Z,1.6
2022-12-07T06:37:16.275Z,2.4
2022-12-07T06:39:16.176Z,2
2022-12-07T06:41:16.044Z,2.8
2022-12-07T06:43:15.955Z,1.5
2022-12-07T06:45:15.825Z,1.2
2022-12-07T06:49:19.070Z,1.9
2022-12-07T06:51:18.968Z,2.4
2022-12-07T06:53:18.847Z,2.9
2022-12-07T06:55:18.719Z,2.4
2022-12-07T06:57:18.599Z,2.8
2022-12-07T06:59:18.537Z,2.3
2022-12-07T07:01:21.947Z,1.8
2022-12-07T07:03:21.773Z,2.4
2022-12-07T07:05:21.662Z,2.3
2022-12-07T07:16:26.302Z,2
2022-12-07T07:18:26.109Z,2.5
2022-12-07T07:20:26.028Z,2.5
2022-12-07T07:22:25.907Z,1.7
2022-12-07T07:24:25.779Z,2
2022-12-07T07:26:25.664Z,2.7
2022-12-07T07:28:29.034Z,2.7
2022-12-07T07:34:28.664Z,2.5
2022-12-07T07:36:28.585Z,2.4
2022-12-07T07:40:28.371Z,2.2
2022-12-07T07:54:31.065Z,3.4
2022-12-07T07:56:34.438Z,2.5
2022-12-07T07:58:34.306Z,2.9
2022-12-07T08:00:34.149Z,2.1
2022-12-07T08:02:56.358Z,3.2
2022-12-07T08:04:56.356Z,2.6
2022-12-07T08:06:56.136Z,4.7
2022-12-07T08:08:59.501Z,1.8
2022-12-07T08:10:59.418Z,2.1
2022-12-07T08:12:59.359Z,2.1
2022-12-07T08:14:59.190Z,1.7
2022-12-07T08:16:59.069Z,1.8
2022-12-07T08:18:58.931Z,1.4
2022-12-07T08:20:58.809Z,1.8
2022-12-07T08:23:02.242Z,2.2
2022-12-07T08:25:02.197Z,1.3
2022-12-07T08:29:01.850Z,2.3
2022-12-07T08:31:01.802Z,1.5
2022-12-07T08:33:01.606Z,1.4
2022-12-07T08:37:04.881Z,2.1
2022-12-07T08:39:32.352Z,2.1
2022-12-07T08:41:04.640Z,2.7
2022-12-07T08:43:04.569Z,2.4
2022-12-07T08:49:05.722Z,2.4
2022-12-07T08:56:10.562Z,2.3
2022-12-07T08:58:10.459Z,2.7
2022-12-07T09:00:10.309Z,2.3
2022-12-07T09:02:10.239Z,2.1
2022-12-07T09:04:13.598Z,2.1
2022-12-07T09:06:13.603Z,1.9
2022-12-07T09:08:13.451Z,2.6
2022-12-07T09:10:13.230Z,2.7
2022-12-07T09:12:13.140Z,1.6
2022-12-07T09:14:13.017Z,1.7
2022-12-07T09:16:12.939Z,3.5
2022-12-07T09:18:16.229Z,2.6
2022-12-07T09:20:16.124Z,2.3
2022-12-07T09:22:16.016Z,2.4
2022-12-07T09:24:15.963Z,3.1
2022-12-07T09:26:15.785Z,3
2022-12-07T09:28:15.661Z,3
2022-12-07T09:30:15.538Z,3.2
2022-12-07T09:32:18.965Z,2.7
2022-12-07T09:34:18.880Z,3.2
2022-12-07T09:36:18.635Z,2.4
2022-12-07T09:38:18.520Z,3.6
2022-12-07T09:40:18.368Z,1
2022-12-07T09:42:18.248Z,1.8
2022-12-07T09:44:18.102Z,2.9
2022-12-07T09:46:21.614Z,3
2022-12-07T09:51:24.206Z,1.8
2022-12-07T09:59:25.299Z,1.4
2022-12-07T10:03:24.753Z,2.9
2022-12-07T10:05:24.891Z,3.1
2022-12-07T10:07:24.196Z,2.1
2022-12-07T10:09:23.944Z,1.5
2022-12-07T10:11:23.683Z,2.3
2022-12-07T10:13:26.794Z,1.6
2022-12-07T10:15:26.521Z,1.9
2022-12-07T10:17:26.211Z,2.2
2022-12-07T10:19:25.910Z,2.1
2022-12-07T10:21:25.609Z,1.8
2022-12-07T10:23:25.337Z,1.2
2022-12-07T10:25:25.031Z,1.4
2022-12-07T10:27:28.148Z,1.5
2022-12-07T10:29:27.966Z,1.7
2022-12-07T10:31:27.832Z,1.8
2022-12-07T10:33:27.599Z,1.6
2022-12-07T10:39:26.833Z,1.8
2022-12-07T10:41:30.069Z,2.8
2022-12-07T10:43:29.772Z,2.3
2022-12-07T10:45:29.548Z,1.6
2022-12-07T10:46:31.175Z,1.8
2022-12-07T10:48:30.707Z,2
2022-12-07T10:50:30.407Z,1.7
2022-12-07T10:52:30.108Z,2.1
2022-12-07T10:54:33.207Z,1.4
2022-12-07T10:56:32.975Z,1.4
2022-12-07T10:58:32.702Z,1.3
2022-12-07T11:00:32.454Z,2.3
2022-12-07T11:02:32.166Z,2
2022-12-07T11:04:31.797Z,1.3
2022-12-07T11:06:31.467Z,1.7
2022-12-07T11:08:34.608Z,1.4
2022-12-07T11:10:34.253Z,2.1
2022-12-07T11:12:33.970Z,2.2
2022-12-07T11:14:33.738Z,2.4
2022-12-07T11:16:33.383Z,1.8
2022-12-07T11:20:32.698Z,2.7
2022-12-07T11:22:35.774Z,2.4
2022-12-07T11:24:35.407Z,2
2022-12-07T11:26:35.052Z,2.2
2022-12-07T11:28:34.736Z,3.3
2022-12-07T11:30:34.411Z,2.1
2022-12-07T11:32:34.073Z,2.2
2022-12-07T11:34:33.717Z,2.5
2022-12-07T11:36:36.771Z,2.3
2022-12-07T11:38:36.387Z,2.6
2022-12-07T11:40:36.086Z,2.4
2022-12-07T11:42:57.817Z,2.1
2022-12-07T11:44:57.489Z,1.4
2022-12-07T11:46:57.217Z,1.6
2022-12-07T11:49:00.187Z,2.3
2022-12-07T11:50:59.850Z,2.1
2022-12-07T11:52:59.497Z,2.3
2022-12-07T11:54:59.163Z,2.4
2022-12-07T11:58:58.487Z,2.8
2022-12-07T12:00:58.183Z,1.8
2022-12-07T12:03:01.362Z,1.9
2022-12-07T12:05:00.874Z,2
2022-12-07T12:10:59.820Z,1.8
2022-12-07T12:14:59.064Z,2.1
2022-12-07T12:19:01.737Z,1.3
2022-12-07T12:31:02.930Z,1.9
2022-12-07T12:33:02.564Z,1.8
2022-12-07T12:35:02.595Z,1.3
2022-12-07T12:36:03.812Z,1.7
2022-12-07T12:38:03.384Z,1.5
2022-12-07T12:44:05.767Z,1.8
2022-12-07T12:48:05.113Z,2.2
2022-12-07T12:50:04.768Z,1.5
2022-12-07T12:52:04.440Z,1.7
2022-12-07T12:54:04.077Z,1.4
2022-12-07T12:56:03.725Z,1.5
2022-12-07T12:58:06.796Z,1.6
2022-12-07T13:00:06.436Z,1.6
2022-12-07T13:02:06.186Z,1.5
2022-12-07T13:04:05.778Z,2.1
2022-12-07T13:06:05.412Z,2.2
2022-12-07T13:08:05.175Z,1.9
2022-12-07T13:14:07.569Z,2
2022-12-07T13:16:07.173Z,1.8
2022-12-07T13:18:06.845Z,1.8
2022-12-07T13:20:06.529Z,1.3
2022-12-07T13:22:06.197Z,1.3
2022-12-07T13:24:05.880Z,1
2022-12-07T13:26:12.672Z,1.6
2022-12-07T13:28:08.640Z,1.8
2022-12-07T13:30:08.361Z,2
2022-12-07T13:35:09.208Z,1.1
2022-12-07T13:37:08.888Z,1.3
2022-12-07T13:39:11.986Z,2
2022-12-07T13:41:11.651Z,2
2022-12-07T13:43:11.344Z,1.4
2022-12-07T13:45:10.987Z,0.9
2022-12-07T13:47:10.676Z,1.4
2022-12-07T13:49:10.403Z,1.4
2022-12-07T13:59:12.220Z,1.7
2022-12-07T14:01:11.965Z,2.1
2022-12-07T14:05:11.312Z,1.4
2022-12-07T14:07:14.412Z,1.6
2022-12-07T14:09:14.204Z,1.8
2022-12-07T14:11:13.899Z,1.7
2022-12-07T14:13:13.612Z,2
2022-12-07T14:17:13.352Z,2.3
2022-12-07T14:19:13.030Z,0.9
2022-12-07T14:21:16.241Z,1.1
2022-12-07T14:23:15.940Z,1.2
2022-12-07T14:25:15.653Z,2.5
2022-12-07T14:26:17.315Z,1.4
2022-12-07T14:28:16.996Z,1.2
2022-12-07T14:30:18.384Z,1.6
2022-12-07T14:32:18.126Z,1.2
2022-12-07T14:34:21.340Z,1.7
2022-12-07T14:36:21.098Z,1.5
2022-12-07T14:38:20.805Z,0.6
2022-12-07T14:40:20.682Z,1.1
2022-12-07T14:42:20.469Z,2.8
2022-12-07T14:44:25.654Z,1.2
2022-12-07T14:54:22.667Z,1.2
2022-12-07T14:56:22.509Z,1.7
2022-12-07T14:58:22.390Z,1.2
2022-12-07T15:00:22.230Z,1.4
2022-12-07T15:02:25.560Z,1.5
2022-12-07T15:04:25.493Z,1
2022-12-07T15:06:25.261Z,1.4
2022-12-07T15:08:25.275Z,1
2022-12-07T15:10:24.964Z,1.1
2022-12-07T15:12:24.817Z,1.1
2022-12-07T15:14:24.643Z,1.2
2022-12-07T15:16:33.491Z,1.4
2022-12-07T15:18:27.861Z,1.9
2022-12-07T15:20:27.706Z,1.3
2022-12-07T15:22:49.883Z,1.2
2022-12-07T15:24:49.727Z,1.6
2022-12-07T15:26:49.570Z,1.4
2022-12-07T15:28:52.930Z,1.6
2022-12-07T15:30:52.844Z,1.6
2022-12-07T15:34:52.555Z,2.2
2022-12-07T15:36:52.391Z,1.8
2022-12-07T15:42:55.479Z,2.2
2022-12-07T15:44:55.356Z,1.9
2022-12-07T15:46:55.256Z,1.9
2022-12-07T15:48:55.284Z,1.8
2022-12-07T15:50:54.932Z,1.8
2022-12-07T15:52:54.784Z,1.7
2022-12-07T15:54:54.627Z,2.2
2022-12-07T15:56:57.995Z,2.1
2022-12-07T15:58:57.873Z,2.1
2022-12-07T16:00:57.707Z,1.8
2022-12-07T16:02:57.717Z,1.4
2022-12-07T16:04:57.431Z,1.1
2022-12-07T16:06:57.323Z,1.6
2022-12-07T16:08:57.199Z,2.1
2022-12-07T16:11:00.513Z,2.7
2022-12-07T16:13:00.393Z,2
2022-12-07T16:15:00.536Z,1.4
2022-12-07T16:16:02.041Z,2.5
2022-12-07T16:18:01.828Z,2.1
2022-12-07T16:20:01.677Z,2.6
2022-12-07T16:30:04.608Z,3
2022-12-07T16:40:07.221Z,2.2
2022-12-07T16:42:07.211Z,2.5
2022-12-07T16:44:06.942Z,2.1
2022-12-07T16:46:06.850Z,2
2022-12-07T16:48:06.669Z,2.2
2022-12-07T16:50:06.592Z,2.6
2022-12-07T16:52:20.005Z,2.6
2022-12-07T16:54:09.666Z,2.5
2022-12-07T16:56:09.498Z,1.5
2022-12-07T16:58:09.345Z,3.4
2022-12-07T17:00:09.193Z,2
2022-12-07T17:02:09.059Z,2.6
2022-12-07T17:04:09.030Z,2
2022-12-07T17:06:12.334Z,2
2022-12-07T17:08:12.340Z,2.6
2022-12-07T17:13:13.597Z,2.4
2022-12-07T17:17:13.307Z,2.8
2022-12-07T17:19:16.682Z,2.9
2022-12-07T17:21:16.557Z,9
2022-12-07T17:23:16.414Z,3.5
2022-12-07T17:25:16.299Z,3.8
2022-12-07T17:27:16.164Z,5.7
2022-12-07T17:29:16.028Z,4.3
2022-12-07T17:31:15.963Z,4
2022-12-07T17:33:19.276Z,3
2022-12-07T17:35:19.123Z,3.9
2022-12-07T17:37:19.027Z,6.4
2022-12-07T17:39:18.883Z,3.6
2022-12-07T17:41:18.788Z,3.5
2022-12-07T17:43:18.652Z,2.9
2022-12-07T17:45:18.515Z,4.3
2022-12-07T17:47:21.874Z,3.3
2022-12-07T17:49:21.763Z,2.8
2022-12-07T17:51:21.632Z,3.2
2022-12-07T17:53:21.511Z,2.8
2022-12-07T17:55:21.376Z,3.8
2022-12-07T17:57:21.244Z,3.6
2022-12-07T17:59:21.114Z,2.9
2022-12-07T18:01:25.349Z,4.2
2022-12-07T18:06:25.904Z,4.9
2022-12-07T18:08:25.862Z,4
2022-12-07T18:10:25.654Z,6.9
2022-12-07T18:12:25.523Z,5.3
2022-12-07T18:14:28.893Z,7.2
2022-12-07T18:16:28.831Z,8
2022-12-07T18:18:28.650Z,4.8
2022-12-07T18:20:28.519Z,4
2022-12-07T18:22:28.356Z,6.4
2022-12-07T18:24:34.917Z,5.1
2022-12-07T18:26:28.165Z,8.9
2022-12-07T18:28:31.513Z,6.8
2022-12-07T18:31:06.485Z,10.7
2022-12-07T18:32:31.249Z,4.8
2022-12-07T18:34:31.149Z,7.2
2022-12-07T18:36:31.013Z,6.2
2022-12-07T18:38:30.869Z,4
2022-12-07T18:40:30.756Z,7.4
2022-12-07T18:48:33.759Z,6
2022-12-07T18:50:33.649Z,4.7
2022-12-07T18:52:33.521Z,4.1
2022-12-07T18:54:33.381Z,6.5
2022-12-07T18:56:36.731Z,4
2022-12-07T18:58:36.595Z,3.8
2022-12-07T19:00:36.505Z,6.5
2022-12-07T19:02:58.923Z,3.3
2022-12-07T19:04:58.744Z,4.9
2022-12-07T19:06:58.614Z,3.3
2022-12-07T19:09:01.982Z,4.5
2022-12-07T19:11:01.847Z,3.8
2022-12-07T19:29:04.251Z,4.3
2022-12-07T19:37:07.279Z,4.9
2022-12-07T19:41:07.039Z,6.5
2022-12-07T19:43:06.922Z,7
2022-12-07T19:45:07.058Z,8.6
2022-12-07T19:47:06.676Z,10
2022-12-07T19:49:06.566Z,4.9
2022-12-07T19:51:09.928Z,3.9
2022-12-07T19:53:09.810Z,5
2022-12-07T19:55:09.682Z,4.6
2022-12-07T19:56:11.383Z,3.6
2022-12-07T20:00:11.159Z,3.3
2022-12-07T20:02:11.025Z,5.3
2022-12-07T20:04:14.405Z,3.1
2022-12-07T20:06:14.257Z,4.4
2022-12-07T20:08:14.222Z,3.8
2022-12-07T20:10:14.039Z,3.1
2022-12-07T20:18:18.534Z,3.4
2022-12-07T20:22:18.278Z,6
2022-12-07T20:24:18.155Z,3.5
2022-12-07T20:26:17.994Z,2.7
2022-12-07T20:28:17.896Z,3.5
2022-12-07T20:36:20.848Z,2.5
2022-12-07T20:38:20.732Z,2.7
2022-12-07T20:40:20.644Z,3.8
2022-12-07T20:42:20.487Z,2.8
2022-12-07T20:44:20.375Z,2.6
2022-12-07T20:46:23.841Z,3.4
2022-12-07T20:48:23.606Z,2.8
2022-12-07T20:50:23.515Z,3.7
2022-12-07T20:51:25.200Z,2.6
2022-12-07T20:55:24.958Z,3.3
2022-12-07T20:59:28.225Z,2.7
2022-12-07T21:01:28.136Z,2.4
2022-12-07T21:03:27.913Z,2.1
2022-12-07T21:05:27.775Z,1.5
2022-12-07T21:09:27.550Z,2.1
2022-12-07T21:11:27.382Z,2.3
2022-12-07T21:13:30.787Z,2.5
2022-12-07T21:15:30.752Z,2.7
2022-12-07T21:17:30.548Z,3.5
2022-12-07T21:19:30.417Z,3.1
2022-12-07T21:21:30.285Z,3.2
2022-12-07T21:23:30.158Z,3.3
2022-12-07T21:25:30.030Z,3.2
2022-12-07T21:27:33.376Z,3.7
2022-12-07T21:29:43.334Z,3.7
2022-12-07T21:31:33.888Z,3.3
2022-12-07T21:33:33.649Z,3
2022-12-07T21:35:33.539Z,3.7
2022-12-07T21:37:33.438Z,3.5
2022-12-07T21:41:36.678Z,5.2
2022-12-07T21:43:36.559Z,4.2
2022-12-07T21:45:36.440Z,5.9
2022-12-07T21:46:38.178Z,5.6
2022-12-07T21:48:38.013Z,4.9
2022-12-07T21:50:37.869Z,5.7
2022-12-07T21:52:37.780Z,3.8
2022-12-07T21:54:41.156Z,4.8
2022-12-07T21:56:41.027Z,6
2022-12-07T21:58:40.894Z,5.9
2022-12-07T22:00:40.766Z,4
2022-12-07T22:02:40.729Z,5.3
2022-12-07T22:04:40.512Z,5.2
2022-12-07T22:06:40.369Z,4.1
2022-12-07T22:08:43.745Z,5.2
2022-12-07T22:10:43.625Z,3.9
2022-12-07T22:12:43.507Z,5.5
2022-12-07T22:14:43.371Z,5.1
2022-12-07T22:22:46.383Z,6.4
2022-12-07T22:24:46.206Z,5.1
2022-12-07T22:26:46.101Z,3.9
2022-12-07T22:28:46.021Z,4.3
2022-12-07T22:30:45.896Z,4.9
2022-12-07T22:32:48.775Z,5.1
2022-12-07T22:34:45.648Z,4.7
2022-12-07T22:36:49.022Z,7.6
2022-12-07T22:38:48.906Z,6.6
2022-12-07T22:40:48.806Z,11
2022-12-07T22:49:07.861Z,7.2
2022-12-07T22:51:07.720Z,8
2022-12-07T22:53:07.609Z,5.3
2022-12-07T22:55:07.558Z,3.9
2022-12-07T22:57:07.407Z,5
2022-12-07T22:59:07.283Z,11.6
2022-12-07T23:01:07.159Z,4.9
2022-12-07T23:03:10.634Z,7.5
2022-12-07T23:05:10.413Z,2.7
2022-12-07T23:07:10.321Z,6.8
2022-12-07T23:09:10.203Z,7.5
2022-12-07T23:11:10.092Z,9.7
2022-12-07T23:13:09.995Z,5
2022-12-07T23:15:09.883Z,7.2
2022-12-07T23:17:13.210Z,5.6
2022-12-07T23:19:13.118Z,5.2
2022-12-07T23:21:12.980Z,7.8
2022-12-07T23:23:12.854Z,6.2
2022-12-07T23:25:12.739Z,4.5
2022-12-07T23:31:15.963Z,6.8
2022-12-07T23:33:15.771Z,5.7
2022-12-07T23:35:15.670Z,7.8
2022-12-07T23:36:17.367Z,8
2022-12-07T23:38:17.222Z,6.9
2022-12-07T23:40:17.096Z,6.5
2022-12-07T23:42:16.975Z,5.2
2022-12-07T23:44:20.382Z,5.1
2022-12-07T23:46:20.400Z,4.7
2022-12-07T23:48:20.165Z,5.2
2022-12-07T23:50:20.040Z,6.7
2022-12-07T23:52:19.949Z,5.3
2022-12-07T23:54:19.812Z,5
2022-12-07T23:56:19.731Z,5.6
2022-12-07T23:58:23.091Z,5
